sensor_id;sensor_type;location;lat;lon;timestamp;P1;durP1;ratioP1;P2;durP2;ratioP2
77544;SDS011;66672;50.328;7.610;2024-02-21T00:02:04;19.25;;;17.52;;
77544;SDS011;66672;50.328;7.610;2024-02-21T00:04:29;19.50;;;17.58;;
77544;SDS011;66672;50.328;7.610;2024-02-21T00:06:54;18.85;;;17.17;;
77544;SDS011;66672;50.328;7.610;2024-02-21T00:09:20;18.42;;;16.90;;
77544;SDS011;66672;50.328;7.610;2024-02-21T00:11:45;18.58;;;17.08;;
77544;SDS011;66672;50.328;7.610;2024-02-21T00:14:10;19.60;;;17.88;;
77544;SDS011;66672;50.328;7.610;2024-02-21T00:16:35;19.48;;;17.55;;
77544;SDS011;66672;50.328;7.610;2024-02-21T00:19:01;20.45;;;17.30;;
77544;SDS011;66672;50.328;7.610;2024-02-21T00:21:26;18.85;;;17.25;;
77544;SDS011;66672;50.328;7.610;2024-02-21T00:23:51;19.10;;;17.45;;
77544;SDS011;66672;50.328;7.610;2024-02-21T00:26:17;18.95;;;17.48;;
77544;SDS011;66672;50.328;7.610;2024-02-21T00:28:42;19.65;;;17.98;;
77544;SDS011;66672;50.328;7.610;2024-02-21T00:31:07;19.23;;;17.42;;
77544;SDS011;66672;50.328;7.610;2024-02-21T00:33:33;20.20;;;17.98;;
77544;SDS011;66672;50.328;7.610;2024-02-21T00:35:58;19.48;;;17.77;;
77544;SDS011;66672;50.328;7.610;2024-02-21T00:38:23;18.88;;;17.35;;
77544;SDS011;66672;50.328;7.610;2024-02-21T00:40:48;20.90;;;17.17;;
77544;SDS011;66672;50.328;7.610;2024-02-21T00:43:13;19.45;;;17.52;;
77544;SDS011;66672;50.328;7.610;2024-02-21T00:45:38;19.77;;;17.92;;
77544;SDS011;66672;50.328;7.610;2024-02-21T00:48:04;18.85;;;17.08;;
77544;SDS011;66672;50.328;7.610;2024-02-21T00:50:29;19.10;;;17.42;;
77544;SDS011;66672;50.328;7.610;2024-02-21T00:52:55;18.33;;;16.77;;
77544;SDS011;66672;50.328;7.610;2024-02-21T00:55:20;19.48;;;17.65;;
77544;SDS011;66672;50.328;7.610;2024-02-21T00:57:45;18.80;;;17.40;;
77544;SDS011;66672;50.328;7.610;2024-02-21T01:00:10;19.95;;;18.20;;
77544;SDS011;66672;50.328;7.610;2024-02-21T01:02:36;18.92;;;17.42;;
77544;SDS011;66672;50.328;7.610;2024-02-21T01:05:01;18.55;;;17.05;;
77544;SDS011;66672;50.328;7.610;2024-02-21T01:07:27;18.10;;;16.67;;
77544;SDS011;66672;50.328;7.610;2024-02-21T01:09:52;19.10;;;17.30;;
77544;SDS011;66672;50.328;7.610;2024-02-21T01:12:17;19.75;;;17.83;;
77544;SDS011;66672;50.328;7.610;2024-02-21T01:14:43;19.05;;;17.10;;
77544;SDS011;66672;50.328;7.610;2024-02-21T01:17:08;18.40;;;17.02;;
77544;SDS011;66672;50.328;7.610;2024-02-21T01:19:33;19.83;;;17.60;;
77544;SDS011;66672;50.328;7.610;2024-02-21T01:21:58;18.83;;;17.17;;
77544;SDS011;66672;50.328;7.610;2024-02-21T01:24:23;18.77;;;17.05;;
77544;SDS011;66672;50.328;7.610;2024-02-21T01:26:49;19.20;;;17.20;;
77544;SDS011;66672;50.328;7.610;2024-02-21T01:29:14;19.27;;;17.58;;
77544;SDS011;66672;50.328;7.610;2024-02-21T01:31:39;18.30;;;16.80;;
77544;SDS011;66672;50.328;7.610;2024-02-21T01:34:04;19.30;;;17.33;;
77544;SDS011;66672;50.328;7.610;2024-02-21T01:36:30;18.85;;;17.10;;
77544;SDS011;66672;50.328;7.610;2024-02-21T01:38:55;18.55;;;16.95;;
77544;SDS011;66672;50.328;7.610;2024-02-21T01:41:20;19.40;;;17.27;;
77544;SDS011;66672;50.328;7.610;2024-02-21T01:43:45;19.45;;;17.38;;
77544;SDS011;66672;50.328;7.610;2024-02-21T01:46:10;18.35;;;16.85;;
77544;SDS011;66672;50.328;7.610;2024-02-21T01:48:36;20.33;;;17.45;;
77544;SDS011;66672;50.328;7.610;2024-02-21T01:51:01;18.77;;;16.88;;
77544;SDS011;66672;50.328;7.610;2024-02-21T01:53:30;18.58;;;16.95;;
77544;SDS011;66672;50.328;7.610;2024-02-21T01:55:57;18.60;;;17.00;;
77544;SDS011;66672;50.328;7.610;2024-02-21T01:58:23;17.73;;;16.40;;
77544;SDS011;66672;50.328;7.610;2024-02-21T02:00:48;20.05;;;17.50;;
77544;SDS011;66672;50.328;7.610;2024-02-21T02:03:15;19.42;;;17.60;;
77544;SDS011;66672;50.328;7.610;2024-02-21T02:05:44;19.67;;;17.60;;
77544;SDS011;66672;50.328;7.610;2024-02-21T02:08:09;18.40;;;16.63;;
77544;SDS011;66672;50.328;7.610;2024-02-21T02:10:34;18.92;;;16.92;;
77544;SDS011;66672;50.328;7.610;2024-02-21T02:13:00;19.05;;;17.35;;
77544;SDS011;66672;50.328;7.610;2024-02-21T02:15:25;19.13;;;16.90;;
77544;SDS011;66672;50.328;7.610;2024-02-21T02:17:50;18.48;;;16.85;;
77544;SDS011;66672;50.328;7.610;2024-02-21T02:20:15;18.55;;;16.95;;
77544;SDS011;66672;50.328;7.610;2024-02-21T02:22:41;19.83;;;17.17;;
77544;SDS011;66672;50.328;7.610;2024-02-21T02:25:08;19.15;;;17.35;;
77544;SDS011;66672;50.328;7.610;2024-02-21T02:27:40;20.02;;;17.75;;
77544;SDS011;66672;50.328;7.610;2024-02-21T02:30:06;19.17;;;17.17;;
77544;SDS011;66672;50.328;7.610;2024-02-21T02:32:31;18.85;;;17.10;;
77544;SDS011;66672;50.328;7.610;2024-02-21T02:34:56;19.38;;;17.45;;
77544;SDS011;66672;50.328;7.610;2024-02-21T02:37:22;18.33;;;16.77;;
77544;SDS011;66672;50.328;7.610;2024-02-21T02:39:47;20.00;;;17.60;;
77544;SDS011;66672;50.328;7.610;2024-02-21T02:42:12;18.50;;;16.73;;
77544;SDS011;66672;50.328;7.610;2024-02-21T02:44:37;19.38;;;17.63;;
77544;SDS011;66672;50.328;7.610;2024-02-21T02:47:03;18.13;;;16.67;;
77544;SDS011;66672;50.328;7.610;2024-02-21T02:49:28;19.83;;;17.02;;
77544;SDS011;66672;50.328;7.610;2024-02-21T02:51:53;21.23;;;17.08;;
77544;SDS011;66672;50.328;7.610;2024-02-21T02:54:18;19.60;;;17.63;;
77544;SDS011;66672;50.328;7.610;2024-02-21T02:56:43;18.48;;;16.67;;
77544;SDS011;66672;50.328;7.610;2024-02-21T02:59:09;19.05;;;17.38;;
77544;SDS011;66672;50.328;7.610;2024-02-21T03:01:34;18.88;;;17.17;;
77544;SDS011;66672;50.328;7.610;2024-02-21T03:04:00;19.00;;;17.05;;
77544;SDS011;66672;50.328;7.610;2024-02-21T03:06:25;18.13;;;16.58;;
77544;SDS011;66672;50.328;7.610;2024-02-21T03:08:50;17.85;;;16.55;;
77544;SDS011;66672;50.328;7.610;2024-02-21T03:11:19;21.73;;;17.50;;
77544;SDS011;66672;50.328;7.610;2024-02-21T03:13:44;18.63;;;16.90;;
77544;SDS011;66672;50.328;7.610;2024-02-21T03:16:10;19.08;;;17.27;;
77544;SDS011;66672;50.328;7.610;2024-02-21T03:18:35;18.48;;;16.73;;
77544;SDS011;66672;50.328;7.610;2024-02-21T03:21:00;18.38;;;17.00;;
77544;SDS011;66672;50.328;7.610;2024-02-21T03:23:26;18.35;;;16.65;;
77544;SDS011;66672;50.328;7.610;2024-02-21T03:25:51;18.42;;;16.63;;
77544;SDS011;66672;50.328;7.610;2024-02-21T03:28:16;18.50;;;16.55;;
77544;SDS011;66672;50.328;7.610;2024-02-21T03:30:41;18.60;;;16.85;;
77544;SDS011;66672;50.328;7.610;2024-02-21T03:33:06;18.30;;;16.60;;
77544;SDS011;66672;50.328;7.610;2024-02-21T03:35:32;17.42;;;15.80;;
77544;SDS011;66672;50.328;7.610;2024-02-21T03:37:57;17.60;;;15.85;;
77544;SDS011;66672;50.328;7.610;2024-02-21T03:40:22;18.50;;;16.63;;
77544;SDS011;66672;50.328;7.610;2024-02-21T03:42:47;18.55;;;16.77;;
77544;SDS011;66672;50.328;7.610;2024-02-21T03:45:12;18.20;;;16.67;;
77544;SDS011;66672;50.328;7.610;2024-02-21T03:47:38;18.20;;;16.38;;
77544;SDS011;66672;50.328;7.610;2024-02-21T03:50:03;17.83;;;16.13;;
77544;SDS011;66672;50.328;7.610;2024-02-21T03:52:29;17.40;;;15.90;;
77544;SDS011;66672;50.328;7.610;2024-02-21T03:54:54;17.83;;;16.27;;
77544;SDS011;66672;50.328;7.610;2024-02-21T03:57:20;17.80;;;16.27;;
77544;SDS011;66672;50.328;7.610;2024-02-21T03:59:45;17.90;;;16.38;;
77544;SDS011;66672;50.328;7.610;2024-02-21T04:02:10;18.40;;;16.67;;
77544;SDS011;66672;50.328;7.610;2024-02-21T04:04:35;17.63;;;16.13;;
77544;SDS011;66672;50.328;7.610;2024-02-21T04:07:02;17.52;;;16.05;;
77544;SDS011;66672;50.328;7.610;2024-02-21T04:09:31;17.65;;;16.15;;
77544;SDS011;66672;50.328;7.610;2024-02-21T04:11:56;17.70;;;16.08;;
77544;SDS011;66672;50.328;7.610;2024-02-21T04:14:21;17.80;;;16.15;;
77544;SDS011;66672;50.328;7.610;2024-02-21T04:16:46;18.83;;;16.85;;
77544;SDS011;66672;50.328;7.610;2024-02-21T04:19:11;18.52;;;16.55;;
77544;SDS011;66672;50.328;7.610;2024-02-21T04:21:37;18.45;;;15.98;;
77544;SDS011;66672;50.328;7.610;2024-02-21T04:24:02;17.80;;;16.27;;
77544;SDS011;66672;50.328;7.610;2024-02-21T04:26:30;17.63;;;16.13;;
77544;SDS011;66672;50.328;7.610;2024-02-21T04:28:55;18.85;;;16.98;;
77544;SDS011;66672;50.328;7.610;2024-02-21T04:31:20;18.05;;;16.55;;
77544;SDS011;66672;50.328;7.610;2024-02-21T04:33:46;18.35;;;16.73;;
77544;SDS011;66672;50.328;7.610;2024-02-21T04:36:11;18.13;;;16.45;;
77544;SDS011;66672;50.328;7.610;2024-02-21T04:38:36;17.67;;;16.27;;
77544;SDS011;66672;50.328;7.610;2024-02-21T04:41:02;18.38;;;16.70;;
77544;SDS011;66672;50.328;7.610;2024-02-21T04:43:27;17.73;;;16.20;;
77544;SDS011;66672;50.328;7.610;2024-02-21T04:45:52;17.40;;;16.10;;
77544;SDS011;66672;50.328;7.610;2024-02-21T04:48:18;17.73;;;16.23;;
77544;SDS011;66672;50.328;7.610;2024-02-21T04:50:43;18.60;;;16.10;;
77544;SDS011;66672;50.328;7.610;2024-02-21T04:53:09;18.05;;;16.35;;
77544;SDS011;66672;50.328;7.610;2024-02-21T04:55:34;17.63;;;15.95;;
77544;SDS011;66672;50.328;7.610;2024-02-21T04:57:59;18.08;;;16.55;;
77544;SDS011;66672;50.328;7.610;2024-02-21T05:00:27;17.75;;;16.02;;
77544;SDS011;66672;50.328;7.610;2024-02-21T05:02:52;18.80;;;16.98;;
77544;SDS011;66672;50.328;7.610;2024-02-21T05:05:17;17.80;;;16.15;;
77544;SDS011;66672;50.328;7.610;2024-02-21T05:07:42;18.00;;;16.58;;
77544;SDS011;66672;50.328;7.610;2024-02-21T05:10:08;17.13;;;15.73;;
77544;SDS011;66672;50.328;7.610;2024-02-21T05:12:34;18.02;;;16.45;;
77544;SDS011;66672;50.328;7.610;2024-02-21T05:14:59;17.75;;;16.45;;
77544;SDS011;66672;50.328;7.610;2024-02-21T05:17:25;18.10;;;16.45;;
77544;SDS011;66672;50.328;7.610;2024-02-21T05:19:50;17.95;;;16.27;;
77544;SDS011;66672;50.328;7.610;2024-02-21T05:22:15;19.10;;;16.63;;
77544;SDS011;66672;50.328;7.610;2024-02-21T05:24:40;19.00;;;17.17;;
77544;SDS011;66672;50.328;7.610;2024-02-21T05:27:07;17.40;;;16.00;;
77544;SDS011;66672;50.328;7.610;2024-02-21T05:29:32;20.60;;;17.23;;
77544;SDS011;66672;50.328;7.610;2024-02-21T05:31:57;19.58;;;17.63;;
77544;SDS011;66672;50.328;7.610;2024-02-21T05:34:23;18.02;;;16.40;;
77544;SDS011;66672;50.328;7.610;2024-02-21T05:36:48;19.08;;;17.40;;
77544;SDS011;66672;50.328;7.610;2024-02-21T05:39:17;18.25;;;16.65;;
77544;SDS011;66672;50.328;7.610;2024-02-21T05:41:42;17.50;;;16.15;;
77544;SDS011;66672;50.328;7.610;2024-02-21T05:44:08;18.33;;;16.75;;
77544;SDS011;66672;50.328;7.610;2024-02-21T05:46:33;17.65;;;16.15;;
77544;SDS011;66672;50.328;7.610;2024-02-21T05:48:58;19.27;;;17.38;;
77544;SDS011;66672;50.328;7.610;2024-02-21T05:51:23;17.70;;;16.05;;
77544;SDS011;66672;50.328;7.610;2024-02-21T05:53:48;18.27;;;16.70;;
77544;SDS011;66672;50.328;7.610;2024-02-21T05:56:14;17.65;;;15.90;;
77544;SDS011;66672;50.328;7.610;2024-02-21T05:58:39;17.73;;;16.33;;
77544;SDS011;66672;50.328;7.610;2024-02-21T06:01:05;18.25;;;16.73;;
77544;SDS011;66672;50.328;7.610;2024-02-21T06:03:31;17.90;;;16.17;;
77544;SDS011;66672;50.328;7.610;2024-02-21T06:05:57;18.30;;;16.70;;
77544;SDS011;66672;50.328;7.610;2024-02-21T06:08:22;17.98;;;16.42;;
77544;SDS011;66672;50.328;7.610;2024-02-21T06:10:48;18.05;;;16.48;;
77544;SDS011;66672;50.328;7.610;2024-02-21T06:13:13;17.30;;;15.88;;
77544;SDS011;66672;50.328;7.610;2024-02-21T06:15:38;18.25;;;16.52;;
77544;SDS011;66672;50.328;7.610;2024-02-21T06:18:03;18.08;;;16.35;;
77544;SDS011;66672;50.328;7.610;2024-02-21T06:20:29;18.23;;;16.77;;
77544;SDS011;66672;50.328;7.610;2024-02-21T06:22:54;18.60;;;17.10;;
77544;SDS011;66672;50.328;7.610;2024-02-21T06:25:19;18.70;;;16.98;;
77544;SDS011;66672;50.328;7.610;2024-02-21T06:27:44;18.42;;;16.73;;
77544;SDS011;66672;50.328;7.610;2024-02-21T06:30:10;18.83;;;17.05;;
77544;SDS011;66672;50.328;7.610;2024-02-21T06:32:35;20.98;;;17.92;;
77544;SDS011;66672;50.328;7.610;2024-02-21T06:35:00;19.95;;;17.27;;
77544;SDS011;66672;50.328;7.610;2024-02-21T06:37:26;19.02;;;17.25;;
77544;SDS011;66672;50.328;7.610;2024-02-21T06:39:52;19.33;;;17.48;;
77544;SDS011;66672;50.328;7.610;2024-02-21T06:42:17;19.17;;;17.33;;
77544;SDS011;66672;50.328;7.610;2024-02-21T06:44:42;19.45;;;17.50;;
77544;SDS011;66672;50.328;7.610;2024-02-21T06:47:08;19.52;;;17.60;;
77544;SDS011;66672;50.328;7.610;2024-02-21T06:49:34;19.02;;;17.27;;
77544;SDS011;66672;50.328;7.610;2024-02-21T06:51:59;19.23;;;17.38;;
77544;SDS011;66672;50.328;7.610;2024-02-21T06:54:24;19.85;;;18.05;;
77544;SDS011;66672;50.328;7.610;2024-02-21T06:56:49;19.10;;;17.30;;
77544;SDS011;66672;50.328;7.610;2024-02-21T06:59:15;18.65;;;17.08;;
77544;SDS011;66672;50.328;7.610;2024-02-21T07:01:44;19.52;;;17.58;;
77544;SDS011;66672;50.328;7.610;2024-02-21T07:04:09;20.33;;;17.45;;
77544;SDS011;66672;50.328;7.610;2024-02-21T07:06:35;17.92;;;16.40;;
77544;SDS011;66672;50.328;7.610;2024-02-21T07:09:00;19.15;;;17.52;;
77544;SDS011;66672;50.328;7.610;2024-02-21T07:11:25;19.88;;;18.02;;
77544;SDS011;66672;50.328;7.610;2024-02-21T07:13:52;20.00;;;18.00;;
77544;SDS011;66672;50.328;7.610;2024-02-21T07:16:17;18.77;;;17.17;;
77544;SDS011;66672;50.328;7.610;2024-02-21T07:18:42;19.13;;;17.15;;
77544;SDS011;66672;50.328;7.610;2024-02-21T07:21:08;18.38;;;16.83;;
77544;SDS011;66672;50.328;7.610;2024-02-21T07:23:33;18.30;;;16.73;;
77544;SDS011;66672;50.328;7.610;2024-02-21T07:25:58;19.13;;;17.33;;
77544;SDS011;66672;50.328;7.610;2024-02-21T07:28:23;19.20;;;17.25;;
77544;SDS011;66672;50.328;7.610;2024-02-21T07:30:48;19.08;;;17.33;;
77544;SDS011;66672;50.328;7.610;2024-02-21T07:33:13;18.83;;;16.92;;
77544;SDS011;66672;50.328;7.610;2024-02-21T07:35:39;18.15;;;16.60;;
77544;SDS011;66672;50.328;7.610;2024-02-21T07:38:06;19.38;;;17.35;;
77544;SDS011;66672;50.328;7.610;2024-02-21T07:40:32;20.30;;;17.23;;
77544;SDS011;66672;50.328;7.610;2024-02-21T07:42:57;18.98;;;17.17;;
77544;SDS011;66672;50.328;7.610;2024-02-21T07:45:22;19.00;;;17.02;;
77544;SDS011;66672;50.328;7.610;2024-02-21T07:47:49;17.73;;;16.15;;
77544;SDS011;66672;50.328;7.610;2024-02-21T07:50:14;18.40;;;16.65;;
77544;SDS011;66672;50.328;7.610;2024-02-21T07:52:39;19.67;;;17.52;;
77544;SDS011;66672;50.328;7.610;2024-02-21T07:55:05;19.58;;;17.63;;
77544;SDS011;66672;50.328;7.610;2024-02-21T07:57:30;18.95;;;17.35;;
77544;SDS011;66672;50.328;7.610;2024-02-21T07:59:55;19.17;;;17.58;;
77544;SDS011;66672;50.328;7.610;2024-02-21T08:02:20;18.42;;;16.92;;
77544;SDS011;66672;50.328;7.610;2024-02-21T08:04:45;17.85;;;16.35;;
77544;SDS011;66672;50.328;7.610;2024-02-21T08:07:11;17.55;;;15.95;;
77544;SDS011;66672;50.328;7.610;2024-02-21T08:09:36;19.30;;;16.98;;
77544;SDS011;66672;50.328;7.610;2024-02-21T08:12:03;16.85;;;15.48;;
77544;SDS011;66672;50.328;7.610;2024-02-21T08:14:28;17.95;;;16.10;;
77544;SDS011;66672;50.328;7.610;2024-02-21T08:16:53;18.00;;;16.45;;
77544;SDS011;66672;50.328;7.610;2024-02-21T08:19:20;17.98;;;16.35;;
77544;SDS011;66672;50.328;7.610;2024-02-21T08:21:45;18.48;;;16.52;;
77544;SDS011;66672;50.328;7.610;2024-02-21T08:24:14;17.85;;;16.23;;
77544;SDS011;66672;50.328;7.610;2024-02-21T08:26:43;17.58;;;16.00;;
77544;SDS011;66672;50.328;7.610;2024-02-21T08:29:10;17.52;;;16.13;;
77544;SDS011;66672;50.328;7.610;2024-02-21T08:31:35;17.83;;;16.05;;
77544;SDS011;66672;50.328;7.610;2024-02-21T08:34:00;19.02;;;17.33;;
77544;SDS011;66672;50.328;7.610;2024-02-21T08:36:30;17.48;;;16.02;;
77544;SDS011;66672;50.328;7.610;2024-02-21T08:38:55;18.05;;;16.45;;
77544;SDS011;66672;50.328;7.610;2024-02-21T08:41:20;18.77;;;17.25;;
77544;SDS011;66672;50.328;7.610;2024-02-21T08:43:48;17.90;;;16.50;;
77544;SDS011;66672;50.328;7.610;2024-02-21T08:46:13;17.77;;;16.17;;
77544;SDS011;66672;50.328;7.610;2024-02-21T08:48:38;18.08;;;16.38;;
77544;SDS011;66672;50.328;7.610;2024-02-21T08:51:04;17.50;;;16.00;;
77544;SDS011;66672;50.328;7.610;2024-02-21T08:53:29;17.75;;;16.35;;
77544;SDS011;66672;50.328;7.610;2024-02-21T08:55:54;17.98;;;16.10;;
77544;SDS011;66672;50.328;7.610;2024-02-21T08:58:19;17.83;;;16.10;;
77544;SDS011;66672;50.328;7.610;2024-02-21T09:00:44;17.63;;;16.17;;
77544;SDS011;66672;50.328;7.610;2024-02-21T09:03:10;17.55;;;15.95;;
77544;SDS011;66672;50.328;7.610;2024-02-21T09:05:35;16.75;;;15.55;;
77544;SDS011;66672;50.328;7.610;2024-02-21T09:08:00;17.48;;;16.00;;
77544;SDS011;66672;50.328;7.610;2024-02-21T09:10:25;18.40;;;16.48;;
77544;SDS011;66672;50.328;7.610;2024-02-21T09:12:51;17.83;;;16.17;;
77544;SDS011;66672;50.328;7.610;2024-02-21T09:15:16;17.08;;;15.68;;
77544;SDS011;66672;50.328;7.610;2024-02-21T09:17:41;17.58;;;15.98;;
77544;SDS011;66672;50.328;7.610;2024-02-21T09:20:06;17.95;;;16.20;;
77544;SDS011;66672;50.328;7.610;2024-02-21T09:22:32;18.30;;;16.10;;
77544;SDS011;66672;50.328;7.610;2024-02-21T09:24:59;17.80;;;16.27;;
77544;SDS011;66672;50.328;7.610;2024-02-21T09:27:24;16.45;;;15.20;;
77544;SDS011;66672;50.328;7.610;2024-02-21T09:29:50;16.92;;;15.50;;
77544;SDS011;66672;50.328;7.610;2024-02-21T09:32:15;18.48;;;16.65;;
77544;SDS011;66672;50.328;7.610;2024-02-21T09:34:40;17.27;;;15.57;;
77544;SDS011;66672;50.328;7.610;2024-02-21T09:37:06;18.33;;;16.83;;
77544;SDS011;66672;50.328;7.610;2024-02-21T09:39:31;15.93;;;14.65;;
77544;SDS011;66672;50.328;7.610;2024-02-21T09:41:58;17.10;;;15.70;;
77544;SDS011;66672;50.328;7.610;2024-02-21T09:44:24;18.33;;;16.80;;
77544;SDS011;66672;50.328;7.610;2024-02-21T09:46:55;18.75;;;17.15;;
77544;SDS011;66672;50.328;7.610;2024-02-21T09:49:23;17.58;;;16.20;;
77544;SDS011;66672;50.328;7.610;2024-02-21T09:51:51;18.92;;;17.33;;
77544;SDS011;66672;50.328;7.610;2024-02-21T09:54:17;18.13;;;16.55;;
77544;SDS011;66672;50.328;7.610;2024-02-21T09:56:46;17.48;;;16.10;;
77544;SDS011;66672;50.328;7.610;2024-02-21T09:59:12;15.73;;;14.55;;
77544;SDS011;66672;50.328;7.610;2024-02-21T10:01:37;16.63;;;15.32;;
77544;SDS011;66672;50.328;7.610;2024-02-21T10:04:03;16.80;;;15.43;;
77544;SDS011;66672;50.328;7.610;2024-02-21T10:06:29;16.30;;;15.00;;
77544;SDS011;66672;50.328;7.610;2024-02-21T10:08:55;17.52;;;16.13;;
77544;SDS011;66672;50.328;7.610;2024-02-21T10:11:22;16.67;;;15.10;;
77544;SDS011;66672;50.328;7.610;2024-02-21T10:13:47;17.27;;;15.43;;
77544;SDS011;66672;50.328;7.610;2024-02-21T10:16:12;15.80;;;14.43;;
77544;SDS011;66672;50.328;7.610;2024-02-21T10:18:38;16.60;;;14.95;;
77544;SDS011;66672;50.328;7.610;2024-02-21T10:21:03;16.15;;;14.75;;
77544;SDS011;66672;50.328;7.610;2024-02-21T10:23:29;16.25;;;14.75;;
77544;SDS011;66672;50.328;7.610;2024-02-21T10:26:04;16.13;;;14.85;;
77544;SDS011;66672;50.328;7.610;2024-02-21T10:28:29;15.77;;;14.60;;
77544;SDS011;66672;50.328;7.610;2024-02-21T10:30:55;16.42;;;14.65;;
77544;SDS011;66672;50.328;7.610;2024-02-21T10:33:20;15.50;;;14.27;;
77544;SDS011;66672;50.328;7.610;2024-02-21T10:35:47;15.93;;;14.73;;
77544;SDS011;66672;50.328;7.610;2024-02-21T10:38:12;16.38;;;14.93;;
77544;SDS011;66672;50.328;7.610;2024-02-21T10:40:38;16.65;;;14.80;;
77544;SDS011;66672;50.328;7.610;2024-02-21T10:43:03;16.58;;;14.60;;
77544;SDS011;66672;50.328;7.610;2024-02-21T10:45:35;16.20;;;14.68;;
77544;SDS011;66672;50.328;7.610;2024-02-21T10:48:16;16.00;;;14.68;;
77544;SDS011;66672;50.328;7.610;2024-02-21T10:50:56;15.48;;;14.07;;
77544;SDS011;66672;50.328;7.610;2024-02-21T10:55:56;15.25;;;13.95;;
77544;SDS011;66672;50.328;7.610;2024-02-21T10:58:23;15.15;;;13.80;;
77544;SDS011;66672;50.328;7.610;2024-02-21T11:00:50;15.40;;;14.20;;
77544;SDS011;66672;50.328;7.610;2024-02-21T11:03:16;16.02;;;14.73;;
77544;SDS011;66672;50.328;7.610;2024-02-21T11:05:41;16.23;;;14.75;;
77544;SDS011;66672;50.328;7.610;2024-02-21T11:08:10;15.93;;;14.68;;
77544;SDS011;66672;50.328;7.610;2024-02-21T11:10:36;20.63;;;16.65;;
77544;SDS011;66672;50.328;7.610;2024-02-21T11:13:05;15.95;;;14.75;;
77544;SDS011;66672;50.328;7.610;2024-02-21T11:15:30;16.55;;;14.88;;
77544;SDS011;66672;50.328;7.610;2024-02-21T11:17:56;15.13;;;14.02;;
77544;SDS011;66672;50.328;7.610;2024-02-21T11:20:21;16.38;;;14.98;;
77544;SDS011;66672;50.328;7.610;2024-02-21T11:22:56;16.55;;;14.93;;
77544;SDS011;66672;50.328;7.610;2024-02-21T11:25:21;15.85;;;14.65;;
77544;SDS011;66672;50.328;7.610;2024-02-21T11:27:47;15.85;;;14.40;;
77544;SDS011;66672;50.328;7.610;2024-02-21T11:30:12;15.93;;;14.65;;
77544;SDS011;66672;50.328;7.610;2024-02-21T11:32:39;16.08;;;14.75;;
77544;SDS011;66672;50.328;7.610;2024-02-21T11:35:05;16.63;;;15.20;;
77544;SDS011;66672;50.328;7.610;2024-02-21T11:37:31;15.73;;;14.32;;
77544;SDS011;66672;50.328;7.610;2024-02-21T11:40:02;16.10;;;14.68;;
77544;SDS011;66672;50.328;7.610;2024-02-21T11:42:28;16.13;;;14.80;;
77544;SDS011;66672;50.328;7.610;2024-02-21T11:44:54;16.27;;;15.00;;
77544;SDS011;66672;50.328;7.610;2024-02-21T11:47:23;16.00;;;14.65;;
77544;SDS011;66672;50.328;7.610;2024-02-21T11:49:48;16.33;;;15.10;;
77544;SDS011;66672;50.328;7.610;2024-02-21T11:52:15;16.15;;;15.00;;
77544;SDS011;66672;50.328;7.610;2024-02-21T11:54:40;17.05;;;14.88;;
77544;SDS011;66672;50.328;7.610;2024-02-21T11:57:06;16.27;;;14.77;;
77544;SDS011;66672;50.328;7.610;2024-02-21T11:59:31;16.40;;;14.80;;
77544;SDS011;66672;50.328;7.610;2024-02-21T12:01:57;15.45;;;14.15;;
77544;SDS011;66672;50.328;7.610;2024-02-21T12:04:23;16.08;;;14.65;;
77544;SDS011;66672;50.328;7.610;2024-02-21T12:06:52;16.58;;;14.93;;
77544;SDS011;66672;50.328;7.610;2024-02-21T12:09:17;16.15;;;14.82;;
77544;SDS011;66672;50.328;7.610;2024-02-21T12:11:43;15.60;;;14.27;;
77544;SDS011;66672;50.328;7.610;2024-02-21T12:14:08;16.35;;;14.70;;
77544;SDS011;66672;50.328;7.610;2024-02-21T12:16:34;15.52;;;14.32;;
77544;SDS011;66672;50.328;7.610;2024-02-21T12:19:03;15.30;;;14.10;;
77544;SDS011;66672;50.328;7.610;2024-02-21T12:21:31;16.45;;;15.15;;
77544;SDS011;66672;50.328;7.610;2024-02-21T12:23:58;16.17;;;14.85;;
77544;SDS011;66672;50.328;7.610;2024-02-21T12:26:23;16.88;;;15.38;;
77544;SDS011;66672;50.328;7.610;2024-02-21T12:28:48;15.65;;;14.25;;
77544;SDS011;66672;50.328;7.610;2024-02-21T12:31:13;15.73;;;14.38;;
77544;SDS011;66672;50.328;7.610;2024-02-21T12:33:39;15.95;;;14.65;;
77544;SDS011;66672;50.328;7.610;2024-02-21T12:36:04;15.95;;;14.65;;
77544;SDS011;66672;50.328;7.610;2024-02-21T12:38:29;15.63;;;14.27;;
77544;SDS011;66672;50.328;7.610;2024-02-21T12:40:54;15.55;;;14.38;;
77544;SDS011;66672;50.328;7.610;2024-02-21T12:43:20;16.63;;;15.20;;
77544;SDS011;66672;50.328;7.610;2024-02-21T12:45:47;15.55;;;14.25;;
77544;SDS011;66672;50.328;7.610;2024-02-21T12:48:13;15.65;;;14.25;;
77544;SDS011;66672;50.328;7.610;2024-02-21T12:50:39;15.77;;;14.27;;
77544;SDS011;66672;50.328;7.610;2024-02-21T12:53:04;15.65;;;14.25;;
77544;SDS011;66672;50.328;7.610;2024-02-21T12:55:29;15.35;;;14.23;;
77544;SDS011;66672;50.328;7.610;2024-02-21T12:57:55;15.45;;;14.30;;
77544;SDS011;66672;50.328;7.610;2024-02-21T13:00:20;15.43;;;14.25;;
77544;SDS011;66672;50.328;7.610;2024-02-21T13:02:46;15.65;;;14.32;;
77544;SDS011;66672;50.328;7.610;2024-02-21T13:05:11;14.60;;;13.70;;
77544;SDS011;66672;50.328;7.610;2024-02-21T13:07:37;15.13;;;14.02;;
77544;SDS011;66672;50.328;7.610;2024-02-21T13:10:02;15.45;;;14.10;;
77544;SDS011;66672;50.328;7.610;2024-02-21T13:12:28;15.00;;;13.90;;
77544;SDS011;66672;50.328;7.610;2024-02-21T13:14:55;15.57;;;14.27;;
77544;SDS011;66672;50.328;7.610;2024-02-21T13:17:20;15.60;;;14.35;;
77544;SDS011;66672;50.328;7.610;2024-02-21T13:19:47;15.93;;;14.82;;
77544;SDS011;66672;50.328;7.610;2024-02-21T13:22:12;16.35;;;14.88;;
77544;SDS011;66672;50.328;7.610;2024-02-21T13:24:37;15.70;;;14.60;;
77544;SDS011;66672;50.328;7.610;2024-02-21T13:27:02;15.80;;;14.80;;
77544;SDS011;66672;50.328;7.610;2024-02-21T13:29:28;16.20;;;14.65;;
77544;SDS011;66672;50.328;7.610;2024-02-21T13:31:54;16.05;;;14.70;;
77544;SDS011;66672;50.328;7.610;2024-02-21T13:34:19;16.15;;;14.80;;
77544;SDS011;66672;50.328;7.610;2024-02-21T13:36:44;15.70;;;14.38;;
77544;SDS011;66672;50.328;7.610;2024-02-21T13:39:10;15.70;;;14.32;;
77544;SDS011;66672;50.328;7.610;2024-02-21T13:41:40;15.80;;;14.38;;
77544;SDS011;66672;50.328;7.610;2024-02-21T13:44:05;16.20;;;14.77;;
77544;SDS011;66672;50.328;7.610;2024-02-21T13:46:30;16.00;;;14.52;;
77544;SDS011;66672;50.328;7.610;2024-02-21T13:49:03;16.38;;;15.02;;
77544;SDS011;66672;50.328;7.610;2024-02-21T13:51:32;15.82;;;14.45;;
77544;SDS011;66672;50.328;7.610;2024-02-21T13:53:58;15.77;;;14.57;;
77544;SDS011;66672;50.328;7.610;2024-02-21T13:56:24;15.35;;;14.00;;
77544;SDS011;66672;50.328;7.610;2024-02-21T13:58:49;15.73;;;14.18;;
77544;SDS011;66672;50.328;7.610;2024-02-21T14:01:14;16.27;;;14.65;;
77544;SDS011;66672;50.328;7.610;2024-02-21T14:03:39;15.45;;;14.35;;
77544;SDS011;66672;50.328;7.610;2024-02-21T14:06:06;15.68;;;14.30;;
77544;SDS011;66672;50.328;7.610;2024-02-21T14:08:31;15.65;;;14.13;;
77544;SDS011;66672;50.328;7.610;2024-02-21T14:10:56;16.35;;;14.80;;
77544;SDS011;66672;50.328;7.610;2024-02-21T14:13:24;15.07;;;14.10;;
77544;SDS011;66672;50.328;7.610;2024-02-21T14:15:49;16.15;;;14.57;;